Latest Coastal Weather Observations for Browse Island

IDD60701

Issued at 9:51 pm CST Sunday 25 January 2015 (issued every 10 minutes, with the page automatically refreshed every 10 minutes)

About coastal observations | Map of coastal stations | Coastal observations for NT | Marine services | Other Formats
Station Details ID: 200784 Name: BROWSE ISLAND Lat: -14.11 Lon: 123.55 Height: 3.7 m
Data from the previous 72 hours. | See also: Recent months for locations in Northern Territory
Date/Time
CST
Temp

°C
Wind Pressure Rain
since 9am
mm
Weather Cloud Vis
km
Sea
Height
m
Swell
Dir
 
Speed
knots
Gust
knots
hPa Trend Height
m
Period
s
Dir
25/09:30pm 28.4 WNW 6 7 1007.9 - - - - - - - - -
25/09:00pm 28.6 WNW 4 5 1008.2 - - - - - - - - -
25/08:30pm 28.8 W 4 5 1008.0 - - - - - - - - -
25/08:00pm 28.9 W 6 7 1007.6 - - - - - - - - -
25/07:30pm 28.8 W 6 7 1007.2 - - - - - - - - -
25/07:00pm 29.0 WSW 7 8 1006.9 - - - - - - - - -
25/06:30pm 29.1 WSW 8 9 1006.7 - - - - - - - - -
25/06:00pm 29.0 WSW 8 9 1006.6 - - - - - - - - -
25/05:30pm 29.0 WSW 8 9 1006.7 - - - - - - - - -
25/05:00pm 29.2 WSW 7 8 1007.2 - - - - - - - - -
25/04:30pm 29.2 SW 8 9 1007.8 - - - - - - - - -
25/04:00pm 29.0 SW 8 8 1008.4 - - - - - - - - -
25/03:30pm 29.3 SW 8 10 1008.4 - - - - - - - - -
25/03:00pm 29.0 SW 7 8 1008.6 - - - - - - - - -
25/02:30pm 29.1 WSW 7 8 1008.7 - - - - - - - - -
25/02:00pm 29.0 WSW 8 9 1009.3 - - - - - - - - -
25/01:30pm 29.1 WSW 9 10 1009.5 - - - - - - - - -
25/01:00pm 29.2 WSW 10 12 1009.7 - - - - - - - - -
25/12:30pm 29.1 WSW 10 11 1009.9 - - - - - - - - -
25/12:00pm 29.0 WSW 12 13 1009.8 - - - - - - - - -
25/11:30am 29.1 WSW 12 14 1010.2 - - - - - - - - -
25/11:00am 29.1 WSW 12 14 1010.5 - - - - - - - - -
25/10:30am 29.0 WSW 12 14 1010.7 - - - - - - - - -
25/10:00am 29.0 W 10 12 1010.5 - - - - - - - - -
25/09:30am 28.7 WNW 10 12 1009.7 - - - - - - - - -
25/09:00am 28.7 WNW 11 14 1009.0 - - - - - - - - -
25/08:30am 28.6 WNW 12 14 1008.7 - - - - - - - - -
25/08:00am 28.6 WNW 11 14 1008.6 - - - - - - - - -
25/07:30am 28.6 WNW 12 14 1008.0 - - - - - - - - -
25/07:00am 28.4 WNW 13 15 1007.4 - - - - - - - - -
25/06:30am 28.4 WNW 13 14 1006.9 - - - - - - - - -
25/06:00am 28.5 WNW 16 18 1006.1 - - - - - - - - -
25/05:30am 28.6 WNW 14 16 1006.4 - - - - - - - - -
25/05:00am 28.3 WNW 15 17 1005.9 - - - - - - - - -
25/04:30am 28.3 WNW 13 14 1006.1 - - - - - - - - -
25/04:00am 28.3 WNW 12 13 1006.2 - - - - - - - - -
25/03:30am 28.6 WNW 10 11 1006.2 - - - - - - - - -
25/03:00am 28.5 W 9 11 1006.9 - - - - - - - - -
25/02:30am 28.6 SSW 5 7 1008.4 - - - - - - - - -
25/02:00am 28.7 SSW 7 8 1008.9 - - - - - - - - -
25/01:30am 28.7 SW 9 12 1008.4 - - - - - - - - -
25/01:00am 28.7 SW 9 11 1008.8 - - - - - - - - -
25/12:30am 28.8 SW 7 8 1009.5 - - - - - - - - -
25/12:00am 28.8 WSW 7 9 1009.2 - - - - - - - - -
 
Date/Time
CST
Temp

°C
Wind Pressure Rain
since 9am
mm
Weather Cloud Vis
km
Sea
Height
m
Swell
Dir
 
Speed
knots
Gust
knots
hPa Trend Height
m
Period
s
Dir
24/11:30pm 28.8 W 9 10 1009.4 - - - - - - - - -
24/11:00pm 28.6 W 5 6 1009.2 - - - - - - - - -
24/10:30pm 28.6 WNW 6 6 1008.6 - - - - - - - - -
24/10:00pm 28.8 WNW 7 9 1008.1 - - - - - - - - -
24/09:30pm 28.8 WNW 7 9 1008.3 - - - - - - - - -
24/09:00pm 28.8 WNW 7 9 1007.9 - - - - - - - - -
24/08:30pm 28.8 WNW 8 10 1007.6 - - - - - - - - -
24/08:00pm 29.0 WNW 10 11 1007.2 - - - - - - - - -
24/07:30pm 29.0 W 10 11 1006.7 - - - - - - - - -
24/07:00pm 29.2 W 11 13 1006.4 - - - - - - - - -
24/06:30pm 29.1 W 12 13 1006.4 - - - - - - - - -
24/06:00pm 29.2 W 11 13 1006.0 - - - - - - - - -
24/05:30pm 29.2 WSW 12 14 1006.0 - - - - - - - - -
24/05:00pm 29.2 WSW 10 11 1006.0 - - - - - - - - -
24/04:30pm 29.2 WSW 11 13 1006.2 - - - - - - - - -
24/04:00pm 29.2 WSW 11 13 1006.4 - - - - - - - - -
24/03:30pm 29.2 W 13 14 1006.7 - - - - - - - - -
24/03:00pm 29.1 WSW 12 13 1006.9 - - - - - - - - -
24/02:30pm 29.0 WSW 13 14 1007.0 - - - - - - - - -
24/02:00pm 29.0 WSW 12 14 1007.3 - - - - - - - - -
24/01:30pm 29.0 WSW 12 14 1007.4 - - - - - - - - -
24/01:00pm 29.0 WSW 13 14 1007.6 - - - - - - - - -
24/12:30pm 29.0 WSW 14 15 1007.7 - - - - - - - - -
24/12:00pm 29.0 WSW 13 15 1008.1 - - - - - - - - -
24/11:30am 29.1 W 13 15 1008.3 - - - - - - - - -
24/11:00am 29.1 WSW 12 14 1008.3 - - - - - - - - -
24/10:30am 29.1 WSW 13 15 1008.3 - - - - - - - - -
24/10:00am 28.7 WSW 11 14 1008.1 - - - - - - - - -
24/09:30am 28.8 WSW 11 14 1007.9 - - - - - - - - -
24/09:00am 28.7 WSW 13 15 1007.7 - - - - - - - - -
24/08:30am 28.7 W 15 17 1007.4 - - - - - - - - -
24/08:00am 28.8 W 14 17 1007.3 - - - - - - - - -
24/07:30am 28.8 W 13 15 1007.1 - - - - - - - - -
24/07:00am 28.7 WSW 15 17 1006.9 - - - - - - - - -
24/06:30am 28.7 W 15 17 1006.8 - - - - - - - - -
24/06:00am 28.9 W 15 18 1006.6 - - - - - - - - -
24/05:30am 28.8 W 14 16 1006.5 - - - - - - - - -
24/05:00am 28.6 W 15 17 1006.2 - - - - - - - - -
24/04:30am 28.7 W 15 17 1006.3 - - - - - - - - -
24/04:00am 28.8 W 16 19 1006.5 - - - - - - - - -
24/03:30am 28.8 W 18 21 1006.4 - - - - - - - - -
24/03:00am 28.8 W 18 21 1006.7 - - - - - - - - -
24/02:30am 28.8 WNW 16 19 1007.0 - - - - - - - - -
24/02:00am 28.9 W 15 17 1007.4 - - - - - - - - -
24/01:30am 29.0 W 17 19 1007.7 - - - - - - - - -
24/01:00am 28.8 W 17 19 1007.7 - - - - - - - - -
24/12:30am 28.9 W 16 19 1007.8 - - - - - - - - -
24/12:00am 28.9 W 17 20 1007.8 - - - - - - - - -
 
Date/Time
CST
Temp

°C
Wind Pressure Rain
since 9am
mm
Weather Cloud Vis
km
Sea
Height
m
Swell
Dir
 
Speed
knots
Gust
knots
hPa Trend Height
m
Period
s
Dir
23/11:30pm 29.0 W 17 20 1007.6 - - - - - - - - -
23/11:00pm 29.0 W 17 20 1008.0 - - - - - - - - -
23/10:30pm 29.0 W 14 16 1008.0 - - - - - - - - -
23/10:00pm 29.0 W 14 16 1008.4 - - - - - - - - -
23/09:30pm 29.2 W 15 18 1008.1 - - - - - - - - -
23/09:00pm 29.2 W 16 19 1007.7 - - - - - - - - -
23/08:30pm 29.1 WSW 15 18 1007.2 - - - - - - - - -
23/08:00pm 29.1 WSW 16 19 1006.9 - - - - - - - - -
23/07:30pm 29.1 WSW 15 17 1006.5 - - - - - - - - -
23/07:00pm 29.1 WSW 15 19 1006.0 - - - - - - - - -
23/06:30pm 29.3 WSW 16 20 1005.6 - - - - - - - - -
23/06:00pm 29.3 WSW 18 21 1005.0 - - - - - - - - -
23/05:30pm 29.4 WSW 20 23 1005.0 - - - - - - - - -
23/05:00pm 29.3 WSW 19 23 1004.8 - - - - - - - - -
23/04:30pm 29.2 W 19 23 1004.9 - - - - - - - - -
23/04:00pm 29.2 W 19 22 1005.1 - - - - - - - - -
23/03:30pm 29.2 W 18 21 1005.4 - - - - - - - - -
23/03:00pm 29.2 W 18 22 1005.3 - - - - - - - - -
23/02:30pm 29.2 W 17 21 1005.7 - - - - - - - - -
23/02:00pm 29.2 W 19 21 1005.8 - - - - - - - - -
23/01:30pm 29.1 W 19 22 1006.4 - - - - - - - - -
23/01:00pm 29.1 W 17 20 1006.8 - - - - - - - - -
23/12:30pm 29.0 W 18 21 1007.3 - - - - - - - - -
23/12:00pm 29.1 W 16 18 1007.9 - - - - - - - - -
23/11:30am 29.1 W 17 19 1008.1 - - - - - - - - -
23/11:00am 29.1 W 16 18 1008.3 - - - - - - - - -
23/10:30am 29.1 W 16 18 1008.5 - - - - - - - - -
23/10:00am 29.0 WSW 15 18 1008.3 - - - - - - - - -
23/09:30am 29.0 WSW 18 21 1008.2 - - - - - - - - -
23/09:00am 28.8 WSW 18 22 1008.3 - - - - - - - - -
23/08:30am 28.8 WSW 17 21 1008.1 - - - - - - - - -
23/08:00am 28.9 WSW 20 23 1008.0 - - - - - - - - -
23/07:30am 28.8 WSW 19 23 1007.6 - - - - - - - - -
23/07:00am 28.8 WSW 21 25 1007.3 - - - - - - - - -
23/06:30am 28.8 W 19 23 1007.2 - - - - - - - - -
23/06:00am 28.8 W 19 24 1006.9 - - - - - - - - -
23/05:30am 28.8 W 19 22 1006.0 - - - - - - - - -
23/05:00am 28.7 W 20 24 1005.9 - - - - - - - - -
23/04:30am 28.7 W 20 23 1005.9 - - - - - - - - -
23/04:00am 28.7 W 19 23 1005.9 - - - - - - - - -
23/03:30am 28.7 W 19 22 1005.9 - - - - - - - - -
23/03:00am 28.7 W 19 22 1005.8 - - - - - - - - -
23/02:30am 28.7 W 18 20 1006.0 - - - - - - - - -
23/02:00am 28.7 W 18 21 1006.4 - - - - - - - - -
23/01:30am 28.7 W 18 20 1006.7 - - - - - - - - -
23/01:00am 28.7 W 17 19 1007.0 - - - - - - - - -
23/12:30am 28.8 W 17 19 1007.5 - - - - - - - - -
23/12:00am 28.8 W 16 19 1007.6 - - - - - - - - -
 
Date/Time
CST
Temp

°C
Wind Pressure Rain
since 9am
mm
Weather Cloud Vis
km
Sea
Height
m
Swell
Dir
 
Speed
knots
Gust
knots
hPa Trend Height
m
Period
s
Dir
22/11:30pm 28.8 WSW 17 20 1007.8 - - - - - - - - -

Other Formats:

Comma delimited format used in spreadsheet applications
http://www.bom.gov.au/fwo/IDD60701/IDD60701.94103.axf

JavaScript Object Notation format (JSON) in row-major order
http://www.bom.gov.au/fwo/IDD60701/IDD60701.94103.json